sensor_id;sensor_type;location;lat;lon;timestamp;P1;durP1;ratioP1;P2;durP2;ratioP2
13816;SDS011;6979;52.116;5.286;2024-02-16T00:02:16;3.63;;;3.33;;
13816;SDS011;6979;52.116;5.286;2024-02-16T00:04:43;3.83;;;3.47;;
13816;SDS011;6979;52.116;5.286;2024-02-16T00:07:12;4.23;;;3.70;;
13816;SDS011;6979;52.116;5.286;2024-02-16T00:09:39;4.17;;;3.40;;
13816;SDS011;6979;52.116;5.286;2024-02-16T00:12:06;3.60;;;3.33;;
13816;SDS011;6979;52.116;5.286;2024-02-16T00:14:33;3.60;;;3.30;;
13816;SDS011;6979;52.116;5.286;2024-02-16T00:17:01;3.80;;;3.50;;
13816;SDS011;6979;52.116;5.286;2024-02-16T00:19:28;4.77;;;3.47;;
13816;SDS011;6979;52.116;5.286;2024-02-16T00:21:56;4.50;;;3.90;;
13816;SDS011;6979;52.116;5.286;2024-02-16T00:24:23;4.83;;;3.80;;
13816;SDS011;6979;52.116;5.286;2024-02-16T00:26:50;4.03;;;3.63;;
13816;SDS011;6979;52.116;5.286;2024-02-16T00:29:26;6.07;;;3.83;;
13816;SDS011;6979;52.116;5.286;2024-02-16T00:31:54;3.67;;;3.47;;
13816;SDS011;6979;52.116;5.286;2024-02-16T00:34:24;4.07;;;3.57;;
13816;SDS011;6979;52.116;5.286;2024-02-16T00:36:50;4.23;;;3.80;;
13816;SDS011;6979;52.116;5.286;2024-02-16T00:39:26;4.20;;;3.63;;
13816;SDS011;6979;52.116;5.286;2024-02-16T00:41:54;3.93;;;3.63;;
13816;SDS011;6979;52.116;5.286;2024-02-16T00:44:21;4.20;;;3.70;;
13816;SDS011;6979;52.116;5.286;2024-02-16T00:46:48;3.73;;;3.13;;
13816;SDS011;6979;52.116;5.286;2024-02-16T00:49:14;3.90;;;3.60;;
13816;SDS011;6979;52.116;5.286;2024-02-16T00:51:45;3.97;;;3.60;;
13816;SDS011;6979;52.116;5.286;2024-02-16T00:54:13;3.90;;;3.60;;
13816;SDS011;6979;52.116;5.286;2024-02-16T00:56:39;3.87;;;3.40;;
13816;SDS011;6979;52.116;5.286;2024-02-16T00:59:09;4.00;;;3.60;;
13816;SDS011;6979;52.116;5.286;2024-02-16T01:01:36;4.53;;;3.47;;
13816;SDS011;6979;52.116;5.286;2024-02-16T01:04:03;4.23;;;3.33;;
13816;SDS011;6979;52.116;5.286;2024-02-16T01:06:32;3.83;;;3.53;;
13816;SDS011;6979;52.116;5.286;2024-02-16T01:09:00;3.30;;;3.10;;
13816;SDS011;6979;52.116;5.286;2024-02-16T01:11:27;3.73;;;3.30;;
13816;SDS011;6979;52.116;5.286;2024-02-16T01:13:54;3.77;;;3.20;;
13816;SDS011;6979;52.116;5.286;2024-02-16T01:16:21;4.93;;;3.87;;
13816;SDS011;6979;52.116;5.286;2024-02-16T01:18:49;4.10;;;3.50;;
13816;SDS011;6979;52.116;5.286;2024-02-16T01:21:16;3.97;;;3.67;;
13816;SDS011;6979;52.116;5.286;2024-02-16T01:23:43;3.57;;;2.97;;
13816;SDS011;6979;52.116;5.286;2024-02-16T01:26:11;3.30;;;3.10;;
13816;SDS011;6979;52.116;5.286;2024-02-16T01:28:38;4.23;;;3.73;;
13816;SDS011;6979;52.116;5.286;2024-02-16T01:31:05;3.50;;;3.27;;
13816;SDS011;6979;52.116;5.286;2024-02-16T01:33:34;3.57;;;3.27;;
13816;SDS011;6979;52.116;5.286;2024-02-16T01:36:03;3.40;;;3.10;;
13816;SDS011;6979;52.116;5.286;2024-02-16T01:38:30;3.13;;;2.93;;
13816;SDS011;6979;52.116;5.286;2024-02-16T01:41:00;3.33;;;3.13;;
13816;SDS011;6979;52.116;5.286;2024-02-16T01:43:31;3.47;;;3.27;;
13816;SDS011;6979;52.116;5.286;2024-02-16T01:45:58;3.67;;;3.33;;
13816;SDS011;6979;52.116;5.286;2024-02-16T01:48:25;3.80;;;3.37;;
13816;SDS011;6979;52.116;5.286;2024-02-16T01:50:53;2.90;;;2.70;;
13816;SDS011;6979;52.116;5.286;2024-02-16T01:53:20;3.83;;;3.40;;
13816;SDS011;6979;52.116;5.286;2024-02-16T01:55:48;4.10;;;3.07;;
13816;SDS011;6979;52.116;5.286;2024-02-16T01:58:16;3.47;;;3.17;;
13816;SDS011;6979;52.116;5.286;2024-02-16T02:00:44;3.37;;;3.17;;
13816;SDS011;6979;52.116;5.286;2024-02-16T02:03:11;4.40;;;3.97;;
13816;SDS011;6979;52.116;5.286;2024-02-16T02:05:43;4.13;;;3.40;;
13816;SDS011;6979;52.116;5.286;2024-02-16T02:08:13;3.67;;;3.37;;
13816;SDS011;6979;52.116;5.286;2024-02-16T02:10:40;3.93;;;3.63;;
13816;SDS011;6979;52.116;5.286;2024-02-16T02:13:08;3.80;;;3.43;;
13816;SDS011;6979;52.116;5.286;2024-02-16T02:15:35;3.70;;;3.43;;
13816;SDS011;6979;52.116;5.286;2024-02-16T02:18:03;3.90;;;3.33;;
13816;SDS011;6979;52.116;5.286;2024-02-16T02:20:30;3.67;;;3.37;;
13816;SDS011;6979;52.116;5.286;2024-02-16T02:22:58;4.27;;;3.30;;
13816;SDS011;6979;52.116;5.286;2024-02-16T02:25:25;4.63;;;3.30;;
13816;SDS011;6979;52.116;5.286;2024-02-16T02:27:53;3.97;;;3.67;;
13816;SDS011;6979;52.116;5.286;2024-02-16T02:30:20;4.57;;;3.80;;
13816;SDS011;6979;52.116;5.286;2024-02-16T02:32:49;3.83;;;3.50;;
13816;SDS011;6979;52.116;5.286;2024-02-16T02:35:16;3.37;;;3.17;;
13816;SDS011;6979;52.116;5.286;2024-02-16T02:37:44;4.10;;;3.80;;
13816;SDS011;6979;52.116;5.286;2024-02-16T02:40:13;3.80;;;3.50;;
13816;SDS011;6979;52.116;5.286;2024-02-16T02:42:42;3.97;;;3.27;;
13816;SDS011;6979;52.116;5.286;2024-02-16T02:45:10;4.43;;;4.03;;
13816;SDS011;6979;52.116;5.286;2024-02-16T02:47:37;3.83;;;3.47;;
13816;SDS011;6979;52.116;5.286;2024-02-16T02:50:04;3.93;;;3.23;;
13816;SDS011;6979;52.116;5.286;2024-02-16T02:52:32;3.27;;;3.07;;
13816;SDS011;6979;52.116;5.286;2024-02-16T02:54:58;3.27;;;3.07;;
13816;SDS011;6979;52.116;5.286;2024-02-16T02:57:27;4.27;;;3.63;;
13816;SDS011;6979;52.116;5.286;2024-02-16T02:59:54;4.20;;;3.87;;
13816;SDS011;6979;52.116;5.286;2024-02-16T03:02:31;4.10;;;3.70;;
13816;SDS011;6979;52.116;5.286;2024-02-16T03:04:58;4.30;;;3.80;;
13816;SDS011;6979;52.116;5.286;2024-02-16T03:07:25;3.47;;;3.17;;
13816;SDS011;6979;52.116;5.286;2024-02-16T03:09:52;3.37;;;3.07;;
13816;SDS011;6979;52.116;5.286;2024-02-16T03:12:22;4.30;;;3.57;;
13816;SDS011;6979;52.116;5.286;2024-02-16T03:14:50;3.90;;;3.60;;
13816;SDS011;6979;52.116;5.286;2024-02-16T03:17:17;4.60;;;3.70;;
13816;SDS011;6979;52.116;5.286;2024-02-16T03:19:44;3.67;;;3.37;;
13816;SDS011;6979;52.116;5.286;2024-02-16T03:22:12;5.40;;;3.90;;
13816;SDS011;6979;52.116;5.286;2024-02-16T03:24:39;4.17;;;3.47;;
13816;SDS011;6979;52.116;5.286;2024-02-16T03:27:05;3.27;;;2.97;;
13816;SDS011;6979;52.116;5.286;2024-02-16T03:29:32;3.60;;;3.30;;
13816;SDS011;6979;52.116;5.286;2024-02-16T03:32:01;4.20;;;3.80;;
13816;SDS011;6979;52.116;5.286;2024-02-16T03:34:31;4.73;;;3.67;;
13816;SDS011;6979;52.116;5.286;2024-02-16T03:36:58;3.70;;;3.40;;
13816;SDS011;6979;52.116;5.286;2024-02-16T03:39:25;4.47;;;3.80;;
13816;SDS011;6979;52.116;5.286;2024-02-16T03:41:52;5.33;;;3.67;;
13816;SDS011;6979;52.116;5.286;2024-02-16T03:44:19;5.77;;;3.80;;
13816;SDS011;6979;52.116;5.286;2024-02-16T03:46:46;6.97;;;3.60;;
13816;SDS011;6979;52.116;5.286;2024-02-16T03:49:19;3.80;;;3.50;;
13816;SDS011;6979;52.116;5.286;2024-02-16T03:51:46;4.67;;;3.60;;
13816;SDS011;6979;52.116;5.286;2024-02-16T03:54:13;3.90;;;3.57;;
13816;SDS011;6979;52.116;5.286;2024-02-16T03:56:40;4.37;;;4.03;;
13816;SDS011;6979;52.116;5.286;2024-02-16T03:59:07;3.87;;;3.57;;
13816;SDS011;6979;52.116;5.286;2024-02-16T04:01:37;3.43;;;3.10;;
13816;SDS011;6979;52.116;5.286;2024-02-16T04:04:04;4.00;;;3.70;;
13816;SDS011;6979;52.116;5.286;2024-02-16T04:06:32;3.83;;;3.50;;
13816;SDS011;6979;52.116;5.286;2024-02-16T04:08:59;3.97;;;3.67;;
13816;SDS011;6979;52.116;5.286;2024-02-16T04:11:25;3.40;;;3.03;;
13816;SDS011;6979;52.116;5.286;2024-02-16T04:13:57;3.60;;;3.30;;
13816;SDS011;6979;52.116;5.286;2024-02-16T04:16:24;3.83;;;3.53;;
13816;SDS011;6979;52.116;5.286;2024-02-16T04:18:51;3.93;;;3.60;;
13816;SDS011;6979;52.116;5.286;2024-02-16T04:21:20;4.50;;;4.10;;
13816;SDS011;6979;52.116;5.286;2024-02-16T04:23:48;3.63;;;3.33;;
13816;SDS011;6979;52.116;5.286;2024-02-16T04:26:15;3.97;;;3.57;;
13816;SDS011;6979;52.116;5.286;2024-02-16T04:28:42;4.80;;;3.90;;
13816;SDS011;6979;52.116;5.286;2024-02-16T04:31:10;6.17;;;4.30;;
13816;SDS011;6979;52.116;5.286;2024-02-16T04:33:37;4.23;;;3.83;;
13816;SDS011;6979;52.116;5.286;2024-02-16T04:36:05;4.47;;;3.50;;
13816;SDS011;6979;52.116;5.286;2024-02-16T04:38:33;4.00;;;3.70;;
13816;SDS011;6979;52.116;5.286;2024-02-16T04:41:01;4.20;;;3.90;;
13816;SDS011;6979;52.116;5.286;2024-02-16T04:43:28;3.77;;;3.47;;
13816;SDS011;6979;52.116;5.286;2024-02-16T04:45:55;3.97;;;3.67;;
13816;SDS011;6979;52.116;5.286;2024-02-16T04:48:21;3.57;;;3.27;;
13816;SDS011;6979;52.116;5.286;2024-02-16T04:50:48;4.17;;;3.60;;
13816;SDS011;6979;52.116;5.286;2024-02-16T04:53:15;3.40;;;3.20;;
13816;SDS011;6979;52.116;5.286;2024-02-16T04:55:44;4.23;;;3.77;;
13816;SDS011;6979;52.116;5.286;2024-02-16T04:58:14;5.10;;;3.97;;
13816;SDS011;6979;52.116;5.286;2024-02-16T05:00:41;3.63;;;3.33;;
13816;SDS011;6979;52.116;5.286;2024-02-16T05:03:11;4.00;;;3.70;;
13816;SDS011;6979;52.116;5.286;2024-02-16T05:05:38;3.57;;;3.27;;
13816;SDS011;6979;52.116;5.286;2024-02-16T05:08:06;3.20;;;3.00;;
13816;SDS011;6979;52.116;5.286;2024-02-16T05:10:33;3.40;;;3.13;;
13816;SDS011;6979;52.116;5.286;2024-02-16T05:13:00;3.97;;;3.60;;
13816;SDS011;6979;52.116;5.286;2024-02-16T05:15:28;3.73;;;3.43;;
13816;SDS011;6979;52.116;5.286;2024-02-16T05:17:55;3.93;;;3.63;;
13816;SDS011;6979;52.116;5.286;2024-02-16T05:20:22;5.00;;;3.70;;
13816;SDS011;6979;52.116;5.286;2024-02-16T05:22:50;3.83;;;3.53;;
13816;SDS011;6979;52.116;5.286;2024-02-16T05:25:20;3.73;;;3.43;;
13816;SDS011;6979;52.116;5.286;2024-02-16T05:27:52;4.33;;;3.93;;
13816;SDS011;6979;52.116;5.286;2024-02-16T05:30:19;3.87;;;3.57;;
13816;SDS011;6979;52.116;5.286;2024-02-16T05:32:47;4.27;;;3.60;;
13816;SDS011;6979;52.116;5.286;2024-02-16T05:35:14;3.87;;;3.50;;
13816;SDS011;6979;52.116;5.286;2024-02-16T05:37:42;3.77;;;3.47;;
13816;SDS011;6979;52.116;5.286;2024-02-16T05:40:12;3.63;;;3.27;;
13816;SDS011;6979;52.116;5.286;2024-02-16T05:42:47;3.80;;;3.50;;
13816;SDS011;6979;52.116;5.286;2024-02-16T05:45:14;3.77;;;3.47;;
13816;SDS011;6979;52.116;5.286;2024-02-16T05:47:41;3.57;;;3.33;;
13816;SDS011;6979;52.116;5.286;2024-02-16T05:50:14;5.17;;;3.90;;
13816;SDS011;6979;52.116;5.286;2024-02-16T05:52:44;4.00;;;3.73;;
13816;SDS011;6979;52.116;5.286;2024-02-16T05:55:11;3.73;;;3.30;;
13816;SDS011;6979;52.116;5.286;2024-02-16T05:57:38;4.00;;;3.63;;
13816;SDS011;6979;52.116;5.286;2024-02-16T06:00:06;4.93;;;3.77;;
13816;SDS011;6979;52.116;5.286;2024-02-16T06:02:36;4.03;;;3.63;;
13816;SDS011;6979;52.116;5.286;2024-02-16T06:05:03;3.73;;;3.43;;
13816;SDS011;6979;52.116;5.286;2024-02-16T06:07:32;3.97;;;3.67;;
13816;SDS011;6979;52.116;5.286;2024-02-16T06:10:00;3.57;;;3.27;;
13816;SDS011;6979;52.116;5.286;2024-02-16T06:12:30;4.10;;;3.80;;
13816;SDS011;6979;52.116;5.286;2024-02-16T06:14:57;4.43;;;3.67;;
13816;SDS011;6979;52.116;5.286;2024-02-16T06:17:24;3.60;;;3.30;;
13816;SDS011;6979;52.116;5.286;2024-02-16T06:19:52;3.33;;;3.10;;
13816;SDS011;6979;52.116;5.286;2024-02-16T06:22:19;4.27;;;3.80;;
13816;SDS011;6979;52.116;5.286;2024-02-16T06:24:47;4.57;;;3.63;;
13816;SDS011;6979;52.116;5.286;2024-02-16T06:27:14;3.67;;;3.37;;
13816;SDS011;6979;52.116;5.286;2024-02-16T06:29:41;3.80;;;3.50;;
13816;SDS011;6979;52.116;5.286;2024-02-16T06:32:08;3.83;;;3.53;;
13816;SDS011;6979;52.116;5.286;2024-02-16T06:34:36;4.17;;;3.80;;
13816;SDS011;6979;52.116;5.286;2024-02-16T06:37:03;3.53;;;3.30;;
13816;SDS011;6979;52.116;5.286;2024-02-16T06:39:30;4.17;;;3.77;;
13816;SDS011;6979;52.116;5.286;2024-02-16T06:41:58;4.03;;;3.73;;
13816;SDS011;6979;52.116;5.286;2024-02-16T06:44:25;4.93;;;3.97;;
13816;SDS011;6979;52.116;5.286;2024-02-16T06:46:52;4.17;;;3.83;;
13816;SDS011;6979;52.116;5.286;2024-02-16T06:49:21;3.83;;;3.40;;
13816;SDS011;6979;52.116;5.286;2024-02-16T06:51:48;4.50;;;3.50;;
13816;SDS011;6979;52.116;5.286;2024-02-16T06:54:15;4.37;;;3.97;;
13816;SDS011;6979;52.116;5.286;2024-02-16T06:56:45;3.67;;;3.37;;
13816;SDS011;6979;52.116;5.286;2024-02-16T06:59:13;4.70;;;4.30;;
13816;SDS011;6979;52.116;5.286;2024-02-16T07:01:40;6.07;;;3.60;;
13816;SDS011;6979;52.116;5.286;2024-02-16T07:04:07;3.73;;;3.43;;
13816;SDS011;6979;52.116;5.286;2024-02-16T07:06:34;3.60;;;3.30;;
13816;SDS011;6979;52.116;5.286;2024-02-16T07:09:03;4.60;;;3.80;;
13816;SDS011;6979;52.116;5.286;2024-02-16T07:11:30;3.80;;;3.50;;
13816;SDS011;6979;52.116;5.286;2024-02-16T07:13:59;4.43;;;3.97;;
13816;SDS011;6979;52.116;5.286;2024-02-16T07:16:33;4.40;;;3.90;;
13816;SDS011;6979;52.116;5.286;2024-02-16T07:19:00;4.47;;;4.07;;
13816;SDS011;6979;52.116;5.286;2024-02-16T07:21:27;4.07;;;3.87;;
13816;SDS011;6979;52.116;5.286;2024-02-16T07:23:57;5.03;;;4.20;;
13816;SDS011;6979;52.116;5.286;2024-02-16T07:26:24;4.30;;;3.90;;
13816;SDS011;6979;52.116;5.286;2024-02-16T07:28:51;4.50;;;4.20;;
13816;SDS011;6979;52.116;5.286;2024-02-16T07:31:18;4.30;;;3.80;;
13816;SDS011;6979;52.116;5.286;2024-02-16T07:33:46;4.73;;;4.20;;
13816;SDS011;6979;52.116;5.286;2024-02-16T07:36:14;4.40;;;4.10;;
13816;SDS011;6979;52.116;5.286;2024-02-16T07:38:43;4.17;;;3.87;;
13816;SDS011;6979;52.116;5.286;2024-02-16T07:41:09;3.67;;;3.37;;
13816;SDS011;6979;52.116;5.286;2024-02-16T07:43:36;4.30;;;4.00;;
13816;SDS011;6979;52.116;5.286;2024-02-16T07:46:04;6.70;;;6.00;;
13816;SDS011;6979;52.116;5.286;2024-02-16T07:48:31;4.63;;;4.23;;
13816;SDS011;6979;52.116;5.286;2024-02-16T07:50:59;4.83;;;4.30;;
13816;SDS011;6979;52.116;5.286;2024-02-16T07:53:27;5.40;;;4.60;;
13816;SDS011;6979;52.116;5.286;2024-02-16T07:55:54;4.53;;;3.80;;
13816;SDS011;6979;52.116;5.286;2024-02-16T07:58:21;5.23;;;4.50;;
13816;SDS011;6979;52.116;5.286;2024-02-16T08:00:49;4.80;;;4.40;;
13816;SDS011;6979;52.116;5.286;2024-02-16T08:03:17;5.00;;;4.30;;
13816;SDS011;6979;52.116;5.286;2024-02-16T08:05:44;5.57;;;3.87;;
13816;SDS011;6979;52.116;5.286;2024-02-16T08:08:12;4.77;;;4.00;;
13816;SDS011;6979;52.116;5.286;2024-02-16T08:10:39;4.73;;;4.33;;
13816;SDS011;6979;52.116;5.286;2024-02-16T08:13:06;5.20;;;4.80;;
13816;SDS011;6979;52.116;5.286;2024-02-16T08:15:35;5.70;;;4.30;;
13816;SDS011;6979;52.116;5.286;2024-02-16T08:18:02;5.50;;;3.93;;
13816;SDS011;6979;52.116;5.286;2024-02-16T08:20:30;4.90;;;4.40;;
13816;SDS011;6979;52.116;5.286;2024-02-16T08:22:57;5.47;;;4.23;;
13816;SDS011;6979;52.116;5.286;2024-02-16T08:25:26;5.10;;;4.60;;
13816;SDS011;6979;52.116;5.286;2024-02-16T08:27:55;4.80;;;4.37;;
13816;SDS011;6979;52.116;5.286;2024-02-16T08:30:22;4.43;;;4.07;;
13816;SDS011;6979;52.116;5.286;2024-02-16T08:32:52;5.00;;;4.60;;
13816;SDS011;6979;52.116;5.286;2024-02-16T08:35:19;4.20;;;3.80;;
13816;SDS011;6979;52.116;5.286;2024-02-16T08:37:46;5.10;;;4.70;;
13816;SDS011;6979;52.116;5.286;2024-02-16T08:40:13;5.17;;;4.67;;
13816;SDS011;6979;52.116;5.286;2024-02-16T08:42:41;5.07;;;4.67;;
13816;SDS011;6979;52.116;5.286;2024-02-16T08:45:08;5.20;;;4.70;;
13816;SDS011;6979;52.116;5.286;2024-02-16T08:47:37;5.23;;;4.73;;
13816;SDS011;6979;52.116;5.286;2024-02-16T08:50:04;6.10;;;4.70;;
13816;SDS011;6979;52.116;5.286;2024-02-16T08:52:32;5.23;;;4.83;;
13816;SDS011;6979;52.116;5.286;2024-02-16T08:54:58;5.13;;;4.73;;
13816;SDS011;6979;52.116;5.286;2024-02-16T08:57:28;6.40;;;5.77;;
13816;SDS011;6979;52.116;5.286;2024-02-16T08:59:56;5.43;;;4.93;;
13816;SDS011;6979;52.116;5.286;2024-02-16T09:02:24;5.03;;;4.53;;
13816;SDS011;6979;52.116;5.286;2024-02-16T09:04:51;5.37;;;4.70;;
13816;SDS011;6979;52.116;5.286;2024-02-16T09:07:18;5.73;;;5.23;;
13816;SDS011;6979;52.116;5.286;2024-02-16T09:09:45;5.77;;;5.27;;
13816;SDS011;6979;52.116;5.286;2024-02-16T09:12:12;7.63;;;5.13;;
13816;SDS011;6979;52.116;5.286;2024-02-16T09:14:39;6.13;;;5.60;;
13816;SDS011;6979;52.116;5.286;2024-02-16T09:17:07;6.10;;;5.50;;
13816;SDS011;6979;52.116;5.286;2024-02-16T09:19:35;5.03;;;4.67;;
13816;SDS011;6979;52.116;5.286;2024-02-16T09:22:02;5.27;;;4.67;;
13816;SDS011;6979;52.116;5.286;2024-02-16T09:24:31;7.60;;;6.47;;
13816;SDS011;6979;52.116;5.286;2024-02-16T09:26:58;6.43;;;5.50;;
13816;SDS011;6979;52.116;5.286;2024-02-16T09:29:31;5.90;;;5.40;;
13816;SDS011;6979;52.116;5.286;2024-02-16T09:31:58;6.43;;;5.93;;
13816;SDS011;6979;52.116;5.286;2024-02-16T09:34:26;6.10;;;5.60;;
13816;SDS011;6979;52.116;5.286;2024-02-16T09:36:53;5.80;;;5.30;;
13816;SDS011;6979;52.116;5.286;2024-02-16T09:39:20;7.60;;;6.03;;
13816;SDS011;6979;52.116;5.286;2024-02-16T09:41:50;5.93;;;5.53;;
13816;SDS011;6979;52.116;5.286;2024-02-16T09:44:18;6.53;;;6.00;;
13816;SDS011;6979;52.116;5.286;2024-02-16T09:46:47;6.97;;;5.70;;
13816;SDS011;6979;52.116;5.286;2024-02-16T09:49:14;7.33;;;6.10;;
13816;SDS011;6979;52.116;5.286;2024-02-16T09:51:42;6.20;;;5.70;;
13816;SDS011;6979;52.116;5.286;2024-02-16T09:54:09;6.80;;;6.20;;
13816;SDS011;6979;52.116;5.286;2024-02-16T09:56:36;8.07;;;6.03;;
13816;SDS011;6979;52.116;5.286;2024-02-16T09:59:03;7.20;;;5.60;;
13816;SDS011;6979;52.116;5.286;2024-02-16T10:01:32;6.27;;;5.77;;
13816;SDS011;6979;52.116;5.286;2024-02-16T10:03:59;6.57;;;6.03;;
13816;SDS011;6979;52.116;5.286;2024-02-16T10:06:32;5.63;;;5.13;;
13816;SDS011;6979;52.116;5.286;2024-02-16T10:09:03;6.77;;;5.97;;
13816;SDS011;6979;52.116;5.286;2024-02-16T10:11:31;6.10;;;5.60;;
13816;SDS011;6979;52.116;5.286;2024-02-16T10:13:58;7.40;;;6.70;;
13816;SDS011;6979;52.116;5.286;2024-02-16T10:16:26;7.40;;;6.17;;
13816;SDS011;6979;52.116;5.286;2024-02-16T10:18:54;5.60;;;5.10;;
13816;SDS011;6979;52.116;5.286;2024-02-16T10:21:25;6.47;;;5.87;;
13816;SDS011;6979;52.116;5.286;2024-02-16T10:23:56;7.23;;;6.53;;
13816;SDS011;6979;52.116;5.286;2024-02-16T10:26:26;6.33;;;5.73;;
13816;SDS011;6979;52.116;5.286;2024-02-16T10:28:54;6.93;;;6.23;;
13816;SDS011;6979;52.116;5.286;2024-02-16T10:31:22;9.67;;;6.80;;
13816;SDS011;6979;52.116;5.286;2024-02-16T10:33:54;7.07;;;6.37;;
13816;SDS011;6979;52.116;5.286;2024-02-16T10:36:25;7.83;;;7.13;;
13816;SDS011;6979;52.116;5.286;2024-02-16T10:38:53;11.17;;;8.10;;
13816;SDS011;6979;52.116;5.286;2024-02-16T10:41:25;7.90;;;6.67;;
13816;SDS011;6979;52.116;5.286;2024-02-16T10:43:55;8.17;;;7.40;;
13816;SDS011;6979;52.116;5.286;2024-02-16T10:46:22;9.50;;;8.60;;
13816;SDS011;6979;52.116;5.286;2024-02-16T10:48:52;8.17;;;7.47;;
13816;SDS011;6979;52.116;5.286;2024-02-16T10:51:23;8.50;;;7.70;;
13816;SDS011;6979;52.116;5.286;2024-02-16T10:53:52;10.40;;;8.23;;
13816;SDS011;6979;52.116;5.286;2024-02-16T10:56:31;9.30;;;8.40;;
13816;SDS011;6979;52.116;5.286;2024-02-16T10:59:00;9.13;;;8.33;;
13816;SDS011;6979;52.116;5.286;2024-02-16T11:01:31;8.27;;;7.47;;
13816;SDS011;6979;52.116;5.286;2024-02-16T11:04:03;8.90;;;8.00;;
13816;SDS011;6979;52.116;5.286;2024-02-16T11:06:44;7.97;;;7.27;;
13816;SDS011;6979;52.116;5.286;2024-02-16T11:09:26;8.97;;;8.07;;
13816;SDS011;6979;52.116;5.286;2024-02-16T11:11:58;9.90;;;9.00;;
13816;SDS011;6979;52.116;5.286;2024-02-16T11:14:33;9.23;;;8.43;;
13816;SDS011;6979;52.116;5.286;2024-02-16T11:17:01;9.60;;;8.77;;
13816;SDS011;6979;52.116;5.286;2024-02-16T11:19:29;9.97;;;9.10;;
13816;SDS011;6979;52.116;5.286;2024-02-16T11:21:56;9.60;;;8.70;;
13816;SDS011;6979;52.116;5.286;2024-02-16T11:24:30;11.03;;;9.90;;
13816;SDS011;6979;52.116;5.286;2024-02-16T11:27:00;10.23;;;9.43;;
13816;SDS011;6979;52.116;5.286;2024-02-16T11:29:29;9.93;;;8.97;;
13816;SDS011;6979;52.116;5.286;2024-02-16T11:31:57;9.90;;;9.00;;
13816;SDS011;6979;52.116;5.286;2024-02-16T11:34:25;11.07;;;10.10;;
13816;SDS011;6979;52.116;5.286;2024-02-16T11:36:53;10.67;;;9.63;;
13816;SDS011;6979;52.116;5.286;2024-02-16T11:39:20;12.27;;;11.07;;
13816;SDS011;6979;52.116;5.286;2024-02-16T11:41:48;11.17;;;10.00;;
13816;SDS011;6979;52.116;5.286;2024-02-16T11:44:27;10.03;;;9.20;;
13816;SDS011;6979;52.116;5.286;2024-02-16T11:46:53;11.27;;;10.03;;
13816;SDS011;6979;52.116;5.286;2024-02-16T11:49:20;11.30;;;10.13;;
13816;SDS011;6979;52.116;5.286;2024-02-16T11:51:47;10.63;;;9.73;;
13816;SDS011;6979;52.116;5.286;2024-02-16T11:54:14;11.00;;;10.00;;
13816;SDS011;6979;52.116;5.286;2024-02-16T11:56:43;10.70;;;9.27;;
13816;SDS011;6979;52.116;5.286;2024-02-16T11:59:13;10.63;;;9.53;;
13816;SDS011;6979;52.116;5.286;2024-02-16T12:01:50;10.17;;;9.20;;
13816;SDS011;6979;52.116;5.286;2024-02-16T12:04:19;9.43;;;8.63;;
13816;SDS011;6979;52.116;5.286;2024-02-16T12:06:47;9.87;;;9.00;;
13816;SDS011;6979;52.116;5.286;2024-02-16T12:09:17;9.83;;;9.03;;
13816;SDS011;6979;52.116;5.286;2024-02-16T12:11:44;10.20;;;9.20;;
13816;SDS011;6979;52.116;5.286;2024-02-16T12:14:16;10.60;;;9.47;;
13816;SDS011;6979;52.116;5.286;2024-02-16T12:16:43;10.13;;;9.33;;
13816;SDS011;6979;52.116;5.286;2024-02-16T12:19:13;10.20;;;9.20;;
13816;SDS011;6979;52.116;5.286;2024-02-16T12:21:40;9.53;;;8.63;;
13816;SDS011;6979;52.116;5.286;2024-02-16T12:24:07;8.17;;;7.47;;
13816;SDS011;6979;52.116;5.286;2024-02-16T12:26:35;7.17;;;6.47;;
13816;SDS011;6979;52.116;5.286;2024-02-16T12:29:02;6.13;;;5.63;;
13816;SDS011;6979;52.116;5.286;2024-02-16T12:31:30;4.77;;;4.37;;
13816;SDS011;6979;52.116;5.286;2024-02-16T12:33:57;4.20;;;3.90;;
13816;SDS011;6979;52.116;5.286;2024-02-16T12:36:25;3.90;;;3.50;;
13816;SDS011;6979;52.116;5.286;2024-02-16T12:38:52;4.57;;;4.17;;
13816;SDS011;6979;52.116;5.286;2024-02-16T12:41:19;3.87;;;3.50;;
13816;SDS011;6979;52.116;5.286;2024-02-16T12:43:46;3.60;;;3.30;;
13816;SDS011;6979;52.116;5.286;2024-02-16T12:46:13;3.73;;;3.27;;
13816;SDS011;6979;52.116;5.286;2024-02-16T12:48:41;3.10;;;2.90;;
13816;SDS011;6979;52.116;5.286;2024-02-16T12:51:08;3.37;;;3.07;;
13816;SDS011;6979;52.116;5.286;2024-02-16T12:53:36;3.37;;;3.17;;
13816;SDS011;6979;52.116;5.286;2024-02-16T12:56:06;3.37;;;3.17;;
13816;SDS011;6979;52.116;5.286;2024-02-16T12:58:34;3.23;;;3.03;;
13816;SDS011;6979;52.116;5.286;2024-02-16T13:01:01;3.30;;;3.10;;
13816;SDS011;6979;52.116;5.286;2024-02-16T13:03:31;3.60;;;3.30;;
13816;SDS011;6979;52.116;5.286;2024-02-16T13:06:00;3.00;;;2.80;;
13816;SDS011;6979;52.116;5.286;2024-02-16T13:08:27;3.10;;;2.70;;
13816;SDS011;6979;52.116;5.286;2024-02-16T13:10:55;3.30;;;3.10;;
13816;SDS011;6979;52.116;5.286;2024-02-16T13:13:22;3.20;;;3.00;;
13816;SDS011;6979;52.116;5.286;2024-02-16T13:15:51;3.27;;;3.07;;
13816;SDS011;6979;52.116;5.286;2024-02-16T13:18:18;3.43;;;3.00;;
13816;SDS011;6979;52.116;5.286;2024-02-16T13:20:46;3.47;;;3.17;;
13816;SDS011;6979;52.116;5.286;2024-02-16T13:23:14;3.03;;;2.83;;
13816;SDS011;6979;52.116;5.286;2024-02-16T13:25:41;3.03;;;2.83;;
13816;SDS011;6979;52.116;5.286;2024-02-16T13:28:08;3.53;;;3.27;;
13816;SDS011;6979;52.116;5.286;2024-02-16T13:30:37;3.30;;;3.00;;
13816;SDS011;6979;52.116;5.286;2024-02-16T13:33:04;2.80;;;2.60;;
13816;SDS011;6979;52.116;5.286;2024-02-16T13:35:33;3.23;;;2.93;;
13816;SDS011;6979;52.116;5.286;2024-02-16T13:38:00;2.57;;;2.37;;
13816;SDS011;6979;52.116;5.286;2024-02-16T13:40:29;2.50;;;2.37;;
13816;SDS011;6979;52.116;5.286;2024-02-16T13:42:56;2.60;;;2.37;;
13816;SDS011;6979;52.116;5.286;2024-02-16T13:45:28;2.87;;;2.60;;
13816;SDS011;6979;52.116;5.286;2024-02-16T13:48:15;2.80;;;2.60;;
13816;SDS011;6979;52.116;5.286;2024-02-16T13:50:43;2.50;;;2.30;;
13816;SDS011;6979;52.116;5.286;2024-02-16T13:53:11;3.00;;;2.73;;
13816;SDS011;6979;52.116;5.286;2024-02-16T13:55:45;3.20;;;2.90;;
13816;SDS011;6979;52.116;5.286;2024-02-16T13:58:12;3.50;;;3.00;;
13816;SDS011;6979;52.116;5.286;2024-02-16T14:00:39;3.50;;;3.00;;
13816;SDS011;6979;52.116;5.286;2024-02-16T14:03:09;3.17;;;2.80;;
13816;SDS011;6979;52.116;5.286;2024-02-16T14:05:37;2.87;;;2.67;;
13816;SDS011;6979;52.116;5.286;2024-02-16T14:08:05;3.27;;;2.97;;
13816;SDS011;6979;52.116;5.286;2024-02-16T14:10:32;3.20;;;3.00;;
13816;SDS011;6979;52.116;5.286;2024-02-16T14:13:00;3.20;;;2.97;;
13816;SDS011;6979;52.116;5.286;2024-02-16T14:15:27;6.53;;;3.77;;
13816;SDS011;6979;52.116;5.286;2024-02-16T14:17:54;3.60;;;3.37;;
13816;SDS011;6979;52.116;5.286;2024-02-16T14:20:21;3.40;;;3.20;;
13816;SDS011;6979;52.116;5.286;2024-02-16T14:22:48;4.03;;;3.73;;
13816;SDS011;6979;52.116;5.286;2024-02-16T14:25:15;3.67;;;3.47;;
13816;SDS011;6979;52.116;5.286;2024-02-16T14:27:44;3.33;;;3.07;;
13816;SDS011;6979;52.116;5.286;2024-02-16T14:30:13;3.53;;;3.27;;
13816;SDS011;6979;52.116;5.286;2024-02-16T14:32:40;3.97;;;3.67;;
13816;SDS011;6979;52.116;5.286;2024-02-16T14:35:07;4.33;;;3.93;;
13816;SDS011;6979;52.116;5.286;2024-02-16T14:37:34;4.30;;;3.87;;
13816;SDS011;6979;52.116;5.286;2024-02-16T14:40:04;3.90;;;3.70;;
13816;SDS011;6979;52.116;5.286;2024-02-16T14:42:35;4.43;;;4.13;;
13816;SDS011;6979;52.116;5.286;2024-02-16T14:45:03;5.00;;;4.63;;
13816;SDS011;6979;52.116;5.286;2024-02-16T14:47:35;5.13;;;4.67;;
13816;SDS011;6979;52.116;5.286;2024-02-16T14:50:02;4.53;;;4.20;;
13816;SDS011;6979;52.116;5.286;2024-02-16T14:52:33;4.70;;;4.40;;
13816;SDS011;6979;52.116;5.286;2024-02-16T14:54:59;4.80;;;4.50;;
13816;SDS011;6979;52.116;5.286;2024-02-16T14:57:26;5.10;;;4.70;;
13816;SDS011;6979;52.116;5.286;2024-02-16T14:59:56;5.10;;;4.67;;
13816;SDS011;6979;52.116;5.286;2024-02-16T15:02:23;5.17;;;4.77;;
13816;SDS011;6979;52.116;5.286;2024-02-16T15:04:52;5.37;;;4.63;;
13816;SDS011;6979;52.116;5.286;2024-02-16T15:07:19;4.70;;;4.40;;